Time;durP1;ratioP1;P1;durP2;ratioP2;P2;SDS_P1;SDS_P2;PMS_P1;PMS_P2;Temp;Humidity;BMP_temperature;BMP_pressure;BME280_temperature;BME280_humidity;BME280_pressure;Samples;Min_cycle;Max_cycle;Signal;HPM_P1;HPM_P2
2023/10/23 00:01:22;;;;;;;2.80;2.63;;;9.80;99.90;;;;;;5048359;28;20135;-86
2023/10/23 00:03:48;;;;;;;2.88;2.67;;;10.10;99.90;;;;;;5022563;28;20045;-87
2023/10/23 00:06:14;;;;;;;2.83;2.65;;;9.80;99.90;;;;;;5034695;28;20069;-86
2023/10/23 00:08:40;;;;;;;3.13;2.92;;;9.90;99.90;;;;;;5023044;28;20081;-88
2023/10/23 00:11:05;;;;;;;3.28;3.08;;;9.70;99.90;;;;;;5019808;28;20063;-87
2023/10/23 00:13:31;;;;;;;3.30;3.10;;;9.70;99.90;;;;;;5013419;28;20038;-86
2023/10/23 00:15:56;;;;;;;3.40;3.20;;;9.70;99.90;;;;;;5036281;28;20048;-87
2023/10/23 00:18:22;;;;;;;3.00;2.80;;;10.00;99.90;;;;;;5026675;28;20053;-87
2023/10/23 00:20:48;;;;;;;3.13;2.92;;;9.90;99.90;;;;;;5009983;28;20048;-85
2023/10/23 00:23:13;;;;;;;3.33;3.13;;;10.00;99.90;;;;;;5010666;28;20045;-86
2023/10/23 00:25:39;;;;;;;3.15;2.95;;;10.00;99.90;;;;;;5011136;28;20072;-86
2023/10/23 00:28:05;;;;;;;3.22;3.03;;;10.00;99.90;;;;;;5009956;28;20049;-87
2023/10/23 00:30:34;;;;;;;2.95;2.75;;;10.10;99.90;;;;;;5008288;28;20049;-86
2023/10/23 00:33:00;;;;;;;3.20;3.00;;;10.00;99.90;;;;;;5009293;28;20049;-86
2023/10/23 00:35:26;;;;;;;2.90;2.70;;;9.80;99.90;;;;;;5008447;28;20048;-87
2023/10/23 00:37:51;;;;;;;3.25;3.05;;;9.80;99.90;;;;;;5006617;28;20714;-85
2023/10/23 00:40:17;;;;;;;3.03;2.83;;;9.80;99.90;;;;;;5025254;28;20486;-87
2023/10/23 00:42:43;;;;;;;2.80;2.63;;;9.90;99.90;;;;;;5011518;28;20494;-86
2023/10/23 00:45:08;;;;;;;2.83;2.63;;;9.80;99.90;;;;;;5010299;28;20083;-86
2023/10/23 00:47:34;;;;;;;3.13;2.92;;;9.80;99.90;;;;;;5013220;28;20086;-85
2023/10/23 00:50:03;;;;;;;3.00;2.80;;;9.80;99.90;;;;;;5029128;28;20057;-87
2023/10/23 00:52:29;;;;;;;3.35;3.15;;;9.90;99.90;;;;;;5007255;28;20130;-86
2023/10/23 00:54:56;;;;;;;3.13;2.92;;;9.90;99.90;;;;;;5007599;28;20077;-86
2023/10/23 00:57:22;;;;;;;3.00;2.80;;;9.70;99.90;;;;;;5009086;28;20063;-85
2023/10/23 00:59:48;;;;;;;3.03;2.83;;;9.80;99.90;;;;;;4994436;28;21203;-87
2023/10/23 01:02:15;;;;;;;2.88;2.67;;;9.70;99.90;;;;;;5039972;28;20127;-85
2023/10/23 01:04:41;;;;;;;3.03;2.83;;;9.80;99.90;;;;;;5003456;28;20056;-86
2023/10/23 01:07:08;;;;;;;3.20;3.00;;;9.80;99.90;;;;;;5019287;28;20056;-85
2023/10/23 01:09:33;;;;;;;3.25;3.05;;;9.70;99.90;;;;;;5046713;28;20053;-85
2023/10/23 01:11:59;;;;;;;3.35;3.15;;;9.50;99.90;;;;;;5004839;28;20057;-85
2023/10/23 01:14:25;;;;;;;2.95;2.75;;;9.50;99.90;;;;;;5023484;28;20076;-86
2023/10/23 01:16:50;;;;;;;3.15;2.95;;;9.50;99.90;;;;;;5024649;28;20541;-85
2023/10/23 01:19:16;;;;;;;3.15;2.95;;;9.40;99.90;;;;;;5024293;28;20132;-84
2023/10/23 01:21:42;;;;;;;3.05;2.85;;;9.70;99.90;;;;;;5026680;28;20121;-85
2023/10/23 01:24:09;;;;;;;2.90;2.72;;;9.50;99.90;;;;;;5030104;28;20095;-85
2023/10/23 01:26:34;;;;;;;2.95;2.75;;;9.30;99.90;;;;;;5023185;28;20044;-83
2023/10/23 01:29:00;;;;;;;2.97;2.78;;;9.00;99.90;;;;;;5024157;28;20045;-86
2023/10/23 01:31:26;;;;;;;3.15;2.95;;;9.10;99.90;;;;;;5008961;28;20072;-88
2023/10/23 01:33:51;;;;;;;2.97;2.78;;;9.10;99.90;;;;;;5025561;28;20042;-86
2023/10/23 01:36:17;;;;;;;2.60;2.47;;;9.10;99.90;;;;;;5012351;28;20206;-86
2023/10/23 01:38:43;;;;;;;2.70;2.55;;;9.40;99.90;;;;;;5027449;28;20163;-87
2023/10/23 01:41:09;;;;;;;2.95;2.75;;;9.40;99.90;;;;;;5022115;28;20045;-84
2023/10/23 01:43:34;;;;;;;2.60;2.50;;;9.50;99.90;;;;;;5025012;28;20146;-85
2023/10/23 01:46:00;;;;;;;2.40;2.30;;;9.30;99.90;;;;;;5036527;28;20056;-88
2023/10/23 01:48:26;;;;;;;2.65;2.53;;;9.30;99.90;;;;;;5059969;28;20037;-86
2023/10/23 01:50:52;;;;;;;2.60;2.50;;;9.50;99.90;;;;;;5053867;28;20048;-87
2023/10/23 01:53:18;;;;;;;2.60;2.47;;;9.70;99.90;;;;;;5027554;28;20052;-85
2023/10/23 01:55:44;;;;;;;2.42;2.33;;;9.70;99.90;;;;;;5011535;28;20583;-85
2023/10/23 01:58:09;;;;;;;2.55;2.45;;;9.40;99.90;;;;;;5025734;28;20049;-86
2023/10/23 02:00:35;;;;;;;2.50;2.40;;;9.40;99.90;;;;;;5030068;28;20114;-86
2023/10/23 02:03:01;;;;;;;2.40;2.30;;;9.40;99.90;;;;;;5037925;28;20779;-86
2023/10/23 02:05:27;;;;;;;2.78;2.63;;;9.50;99.90;;;;;;5030022;28;20041;-86
2023/10/23 02:07:52;;;;;;;2.63;2.50;;;9.40;99.90;;;;;;5011881;28;20449;-86
2023/10/23 02:10:18;;;;;;;2.30;2.20;;;9.20;99.90;;;;;;5026864;28;20036;-85
2023/10/23 02:12:44;;;;;;;2.53;2.42;;;9.40;99.90;;;;;;5027246;28;20072;-85
2023/10/23 02:15:10;;;;;;;2.72;2.63;;;9.30;99.90;;;;;;5022006;28;20052;-85
2023/10/23 02:17:37;;;;;;;2.63;2.53;;;9.40;99.90;;;;;;5042324;28;20049;-86
2023/10/23 02:20:05;;;;;;;2.45;2.35;;;9.10;99.90;;;;;;5031133;28;20504;-86
2023/10/23 02:22:31;;;;;;;2.50;2.40;;;8.90;99.90;;;;;;5023242;28;20501;-85
2023/10/23 02:24:57;;;;;;;2.60;2.50;;;8.70;99.90;;;;;;5031119;28;20060;-86
2023/10/23 02:27:23;;;;;;;2.47;2.38;;;8.60;99.90;;;;;;5026517;28;20433;-85
2023/10/23 02:29:48;;;;;;;2.50;2.40;;;8.70;99.90;;;;;;5009651;28;20534;-86
2023/10/23 02:32:14;;;;;;;2.55;2.45;;;8.80;99.90;;;;;;5029987;28;20036;-86
2023/10/23 02:34:42;;;;;;;3.10;2.90;;;9.00;99.90;;;;;;5051466;28;20133;-85
2023/10/23 02:37:08;;;;;;;2.97;2.78;;;8.80;99.90;;;;;;5027686;28;20204;-85
2023/10/23 02:39:34;;;;;;;3.00;2.80;;;9.00;99.90;;;;;;5027000;28;20445;-85
2023/10/23 02:42:00;;;;;;;3.10;2.90;;;8.90;99.90;;;;;;5026698;28;20048;-85
2023/10/23 02:44:25;;;;;;;3.20;3.00;;;9.10;99.90;;;;;;5057534;28;20044;-85
2023/10/23 02:46:51;;;;;;;3.00;2.80;;;8.90;99.90;;;;;;5026213;28;20049;-85
2023/10/23 02:49:17;;;;;;;2.67;2.55;;;8.80;99.90;;;;;;5026919;28;20071;-85
2023/10/23 02:51:44;;;;;;;2.95;2.75;;;8.70;99.90;;;;;;5021602;28;20049;-85
2023/10/23 02:54:10;;;;;;;3.00;2.80;;;8.80;99.90;;;;;;5007243;28;20076;-86
2023/10/23 02:56:36;;;;;;;2.55;2.45;;;9.20;99.90;;;;;;5025237;28;20069;-85
2023/10/23 02:59:02;;;;;;;2.92;2.72;;;8.80;99.90;;;;;;5050965;28;20045;-86
2023/10/23 03:01:28;;;;;;;2.63;2.50;;;8.80;99.90;;;;;;5027271;28;20587;-86
2023/10/23 03:03:53;;;;;;;2.67;2.53;;;9.20;99.90;;;;;;5009946;28;20077;-85
2023/10/23 03:06:20;;;;;;;2.63;2.50;;;8.80;99.90;;;;;;5026627;28;20163;-85
2023/10/23 03:08:46;;;;;;;2.80;2.63;;;9.20;99.90;;;;;;5027264;28;20931;-85
2023/10/23 03:11:11;;;;;;;2.75;2.60;;;9.20;99.90;;;;;;5035439;28;20051;-85
2023/10/23 03:13:37;;;;;;;2.95;2.75;;;8.90;99.90;;;;;;5011160;28;20045;-84
2023/10/23 03:16:03;;;;;;;2.65;2.53;;;9.10;99.90;;;;;;5026996;28;20053;-85
2023/10/23 03:18:29;;;;;;;2.63;2.50;;;8.80;99.90;;;;;;5057963;28;20037;-85
2023/10/23 03:21:01;;;;;;;2.60;2.50;;;8.90;99.90;;;;;;5031117;28;20052;-85
2023/10/23 03:23:31;;;;;;;2.50;2.40;;;9.00;99.90;;;;;;5018635;28;20045;-84
2023/10/23 03:25:57;;;;;;;2.85;2.65;;;8.70;99.90;;;;;;5014911;28;20048;-85
2023/10/23 03:28:23;;;;;;;2.63;2.50;;;8.90;99.90;;;;;;5038624;28;20044;-86
2023/10/23 03:30:49;;;;;;;2.78;2.60;;;9.00;99.90;;;;;;5025150;28;20490;-85
2023/10/23 03:33:15;;;;;;;2.53;2.42;;;9.10;99.90;;;;;;5027879;28;20047;-84
2023/10/23 03:35:44;;;;;;;2.63;2.50;;;9.00;99.90;;;;;;5025713;28;20614;-84
2023/10/23 03:38:12;;;;;;;2.38;2.28;;;8.80;99.90;;;;;;5012278;28;20127;-83
2023/10/23 03:40:37;;;;;;;2.38;2.28;;;9.00;99.90;;;;;;5040593;28;20048;-84
2023/10/23 03:43:03;;;;;;;2.65;2.53;;;8.80;99.90;;;;;;5026503;28;20068;-85
2023/10/23 03:45:28;;;;;;;2.47;2.38;;;8.60;99.90;;;;;;5018848;28;20036;-83
2023/10/23 03:47:54;;;;;;;2.38;2.28;;;8.90;99.90;;;;;;5005866;28;20052;-84
2023/10/23 03:50:20;;;;;;;2.55;2.45;;;9.00;99.90;;;;;;5029795;28;20041;-83
2023/10/23 03:52:45;;;;;;;2.50;2.40;;;8.80;99.90;;;;;;5026194;28;20076;-84
2023/10/23 03:55:11;;;;;;;2.25;2.15;;;9.00;99.90;;;;;;5023464;28;20056;-84
2023/10/23 03:57:37;;;;;;;2.20;2.10;;;8.70;99.90;;;;;;5031525;28;20579;-84
2023/10/23 04:00:03;;;;;;;2.30;2.20;;;8.90;99.90;;;;;;5024205;28;20136;-84
2023/10/23 04:02:29;;;;;;;2.35;2.25;;;9.20;99.90;;;;;;5058036;28;20037;-84
2023/10/23 04:04:54;;;;;;;2.47;2.38;;;9.00;99.90;;;;;;5025971;28;20524;-84
2023/10/23 04:07:20;;;;;;;2.55;2.45;;;9.10;99.90;;;;;;5037288;28;20072;-83
2023/10/23 04:09:46;;;;;;;2.35;2.25;;;9.20;99.90;;;;;;5027827;28;20570;-85
2023/10/23 04:12:11;;;;;;;2.50;2.40;;;9.30;99.90;;;;;;5028603;28;20053;-86
2023/10/23 04:14:37;;;;;;;2.28;2.17;;;9.50;99.90;;;;;;5020925;28;20120;-86
2023/10/23 04:17:04;;;;;;;2.28;2.17;;;9.70;99.90;;;;;;5029684;28;20076;-85
2023/10/23 04:19:29;;;;;;;2.22;2.13;;;9.70;99.90;;;;;;5009794;28;20075;-86
2023/10/23 04:21:55;;;;;;;2.45;2.35;;;9.20;99.90;;;;;;5028437;28;20076;-85
2023/10/23 04:24:21;;;;;;;2.35;2.25;;;9.70;99.90;;;;;;5022528;28;20095;-85
2023/10/23 04:26:46;;;;;;;2.47;2.38;;;9.50;99.90;;;;;;5030680;28;20048;-86
2023/10/23 04:29:12;;;;;;;2.25;2.15;;;9.60;99.90;;;;;;5032081;28;20048;-85
2023/10/23 04:31:38;;;;;;;2.58;2.47;;;9.20;99.90;;;;;;5027752;28;20041;-86
2023/10/23 04:34:03;;;;;;;2.38;2.28;;;9.20;99.90;;;;;;5045938;28;20041;-84
2023/10/23 04:36:41;;;;;;;2.40;2.30;;;9.30;99.90;;;;;;5026560;28;20064;-85
2023/10/23 04:39:07;;;;;;;2.47;2.38;;;9.20;99.90;;;;;;5026854;28;20045;-85
2023/10/23 04:41:33;;;;;;;2.65;2.55;;;9.50;99.90;;;;;;5027963;28;20536;-84
2023/10/23 04:43:58;;;;;;;2.38;2.28;;;9.20;99.90;;;;;;5009179;28;20048;-85
2023/10/23 04:46:24;;;;;;;2.42;2.33;;;9.70;99.90;;;;;;5027712;28;20072;-84
2023/10/23 04:48:50;;;;;;;2.40;2.30;;;9.70;99.90;;;;;;5020219;28;20183;-84
2023/10/23 04:51:15;;;;;;;2.53;2.42;;;9.40;99.90;;;;;;5060019;28;20107;-84
2023/10/23 04:53:41;;;;;;;2.45;2.35;;;9.50;99.90;;;;;;5029133;28;20051;-85
2023/10/23 04:56:07;;;;;;;2.55;2.45;;;9.40;99.90;;;;;;5037322;28;20560;-85
2023/10/23 04:58:32;;;;;;;2.67;2.58;;;9.00;99.90;;;;;;5029286;28;20119;-85
2023/10/23 05:00:58;;;;;;;2.58;2.47;;;9.40;99.90;;;;;;5026067;28;20048;-84
2023/10/23 05:03:24;;;;;;;2.45;2.35;;;9.30;99.90;;;;;;5026178;28;20493;-85
2023/10/23 05:05:51;;;;;;;2.42;2.33;;;9.30;99.90;;;;;;5024930;28;20037;-84
2023/10/23 05:08:16;;;;;;;2.25;2.15;;;9.00;99.90;;;;;;5023180;28;20124;-85
2023/10/23 05:10:42;;;;;;;2.20;2.10;;;9.00;99.90;;;;;;5031996;28;20181;-84
2023/10/23 05:13:08;;;;;;;2.15;2.05;;;9.00;99.90;;;;;;5021624;28;20037;-85
2023/10/23 05:15:33;;;;;;;2.28;2.17;;;9.20;99.90;;;;;;5023819;28;20080;-85
2023/10/23 05:17:59;;;;;;;2.30;2.20;;;9.30;99.90;;;;;;5052058;28;20757;-85
2023/10/23 05:20:25;;;;;;;2.42;2.33;;;9.40;99.90;;;;;;5029461;28;20140;-84
2023/10/23 05:22:50;;;;;;;2.30;2.20;;;9.30;99.90;;;;;;5032277;28;20068;-85
2023/10/23 05:25:16;;;;;;;2.25;2.15;;;9.00;99.90;;;;;;5026823;28;20375;-85
2023/10/23 05:27:42;;;;;;;2.13;2.03;;;9.00;99.90;;;;;;5030187;28;20379;-85
2023/10/23 05:30:08;;;;;;;2.08;1.98;;;8.90;99.90;;;;;;5030532;28;20040;-84
2023/10/23 05:32:37;;;;;;;2.20;2.10;;;9.10;99.90;;;;;;5028019;28;20080;-84
2023/10/23 05:35:03;;;;;;;2.22;2.13;;;9.30;99.90;;;;;;5036170;28;20052;-85
2023/10/23 05:37:32;;;;;;;2.08;1.98;;;9.30;99.90;;;;;;5030175;28;20425;-85
2023/10/23 05:39:58;;;;;;;2.15;2.05;;;9.20;99.90;;;;;;5029436;28;20061;-85
2023/10/23 05:42:24;;;;;;;2.03;1.92;;;9.00;99.90;;;;;;5060141;28;20143;-84
2023/10/23 05:44:51;;;;;;;2.33;2.22;;;8.70;99.90;;;;;;5054124;28;20093;-84
2023/10/23 05:47:16;;;;;;;2.05;1.95;;;9.10;99.90;;;;;;5029129;28;20538;-85
2023/10/23 05:49:42;;;;;;;2.15;2.05;;;8.80;99.90;;;;;;5032632;28;20037;-85
2023/10/23 05:52:08;;;;;;;2.13;2.03;;;8.80;99.90;;;;;;5031267;28;20056;-84
2023/10/23 05:54:33;;;;;;;2.22;2.13;;;9.10;99.90;;;;;;5066997;28;20036;-85
2023/10/23 05:56:59;;;;;;;2.08;1.98;;;8.90;99.90;;;;;;5028825;28;20139;-84
2023/10/23 05:59:25;;;;;;;2.05;1.95;;;8.90;99.90;;;;;;5029477;28;20037;-84
2023/10/23 06:01:52;;;;;;;2.15;2.05;;;8.60;99.90;;;;;;5030830;28;20049;-84
2023/10/23 06:04:17;;;;;;;2.22;2.13;;;8.90;99.90;;;;;;5028806;28;20049;-84
2023/10/23 06:06:43;;;;;;;2.05;1.95;;;8.50;99.90;;;;;;5031229;28;20041;-84
2023/10/23 06:09:09;;;;;;;1.95;1.85;;;8.60;99.90;;;;;;5031326;28;20409;-85
2023/10/23 06:11:35;;;;;;;2.05;1.95;;;8.60;99.90;;;;;;5033899;28;20521;-84
2023/10/23 06:14:00;;;;;;;2.00;1.90;;;8.40;99.90;;;;;;5037897;28;20119;-85
2023/10/23 06:16:26;;;;;;;1.80;1.70;;;8.60;99.90;;;;;;5028370;28;20457;-85
2023/10/23 06:18:52;;;;;;;1.80;1.70;;;8.20;99.90;;;;;;5032315;28;20041;-84
2023/10/23 06:21:18;;;;;;;1.67;1.58;;;8.40;99.90;;;;;;5016854;28;20494;-84
2023/10/23 06:23:44;;;;;;;1.60;1.50;;;8.20;99.90;;;;;;5032280;28;20051;-85
2023/10/23 06:26:09;;;;;;;1.60;1.50;;;8.20;99.90;;;;;;5033817;28;20048;-86
2023/10/23 06:28:35;;;;;;;1.60;1.50;;;8.50;99.90;;;;;;5033470;28;20056;-84
2023/10/23 06:31:10;;;;;;;1.45;1.38;;;8.20;99.90;;;;;;5036146;28;20883;-84
2023/10/23 06:33:38;;;;;;;1.30;1.30;;;8.60;99.90;;;;;;5060694;28;20048;-84
2023/10/23 06:36:05;;;;;;;1.30;1.30;;;8.30;99.90;;;;;;5029600;28;20080;-84
2023/10/23 06:38:35;;;;;;;1.30;1.30;;;8.80;99.90;;;;;;5031998;28;20262;-86
2023/10/23 06:41:05;;;;;;;1.30;1.30;;;8.30;99.90;;;;;;5029585;28;20127;-88
2023/10/23 06:43:31;;;;;;;1.30;1.30;;;8.30;99.90;;;;;;5060880;28;20064;-86
2023/10/23 06:45:57;;;;;;;1.40;1.40;;;8.40;99.90;;;;;;5058642;28;20053;-83
2023/10/23 06:48:23;;;;;;;1.50;1.40;;;8.40;99.90;;;;;;5037170;28;20033;-85
2023/10/23 06:50:48;;;;;;;1.50;1.40;;;8.80;99.90;;;;;;5030598;28;20102;-84
2023/10/23 06:53:15;;;;;;;1.40;1.40;;;8.40;99.90;;;;;;5031801;28;20048;-85
2023/10/23 06:55:51;;;;;;;1.60;1.50;;;9.00;99.90;;;;;;5026717;28;20045;-84
2023/10/23 06:58:19;;;;;;;1.50;1.40;;;9.00;99.90;;;;;;5030811;28;20529;-85
2023/10/23 07:00:48;;;;;;;1.50;1.40;;;9.10;99.90;;;;;;5059279;28;20565;-85
2023/10/23 07:03:14;;;;;;;1.50;1.40;;;8.50;99.90;;;;;;5033222;28;20155;-85
2023/10/23 07:05:40;;;;;;;1.40;1.40;;;8.50;99.90;;;;;;5030650;28;20553;-85
2023/10/23 07:08:06;;;;;;;1.60;1.50;;;8.60;99.90;;;;;;5049425;28;20056;-84
2023/10/23 07:10:36;;;;;;;1.55;1.45;;;9.30;99.90;;;;;;5027151;28;20041;-85
2023/10/23 07:13:02;;;;;;;1.50;1.40;;;9.00;99.90;;;;;;5030773;28;20161;-85
2023/10/23 07:15:34;;;;;;;1.50;1.40;;;9.10;99.90;;;;;;5028055;28;20094;-85
2023/10/23 07:18:00;;;;;;;1.60;1.50;;;9.10;99.90;;;;;;5016421;28;20044;-83
2023/10/23 07:20:26;;;;;;;1.50;1.40;;;9.60;99.90;;;;;;5059173;28;20406;-84
2023/10/23 07:22:51;;;;;;;1.52;1.42;;;9.70;99.90;;;;;;5030265;28;20037;-84
2023/10/23 07:25:17;;;;;;;1.70;1.60;;;9.20;99.90;;;;;;5034893;28;20044;-86
2023/10/23 07:27:43;;;;;;;1.70;1.60;;;9.50;99.90;;;;;;5021946;28;20045;-84
2023/10/23 07:30:09;;;;;;;1.65;1.55;;;9.90;99.90;;;;;;5027577;28;20044;-84
2023/10/23 07:32:35;;;;;;;1.70;1.60;;;10.10;99.90;;;;;;5063440;28;20041;-85
2023/10/23 07:35:04;;;;;;;1.63;1.52;;;9.70;99.90;;;;;;5027070;28;20044;-83
2023/10/23 07:37:31;;;;;;;1.70;1.60;;;9.80;99.90;;;;;;5026432;28;20053;-84
2023/10/23 07:39:57;;;;;;;1.80;1.70;;;9.90;99.90;;;;;;5028876;28;20755;-85
2023/10/23 07:42:23;;;;;;;1.80;1.70;;;10.10;99.90;;;;;;5032589;28;20037;-81
2023/10/23 07:44:49;;;;;;;1.70;1.60;;;10.40;99.90;;;;;;5032014;28;20704;-83
2023/10/23 07:47:14;;;;;;;1.70;1.60;;;10.60;99.90;;;;;;5026673;28;20094;-84
2023/10/23 07:49:40;;;;;;;1.60;1.50;;;10.80;99.90;;;;;;5034718;28;20055;-84
2023/10/23 07:52:06;;;;;;;1.60;1.50;;;10.30;99.90;;;;;;5035395;28;20080;-84
2023/10/23 07:54:31;;;;;;;1.60;1.50;;;10.30;99.90;;;;;;5030864;28;20405;-84
2023/10/23 07:56:57;;;;;;;1.60;1.50;;;10.20;99.90;;;;;;5026618;28;20048;-84
2023/10/23 07:59:24;;;;;;;1.70;1.60;;;10.90;99.90;;;;;;5041919;28;20041;-85
2023/10/23 08:01:52;;;;;;;1.60;1.50;;;11.10;99.90;;;;;;5022209;28;20056;-85
2023/10/23 08:04:19;;;;;;;1.60;1.50;;;10.90;99.90;;;;;;5024452;28;20494;-84
2023/10/23 08:06:45;;;;;;;1.75;1.65;;;10.50;99.90;;;;;;5028435;28;20073;-84
2023/10/23 08:09:11;;;;;;;1.70;1.60;;;10.60;99.90;;;;;;5018971;28;20565;-84
2023/10/23 08:11:37;;;;;;;1.80;1.70;;;11.10;99.90;;;;;;5051356;28;20052;-85
2023/10/23 08:14:04;;;;;;;1.83;1.73;;;10.40;99.90;;;;;;5027352;28;20052;-86
2023/10/23 08:16:30;;;;;;;1.90;1.80;;;11.00;99.90;;;;;;5033385;28;20057;-84
2023/10/23 08:18:57;;;;;;;1.95;1.85;;;10.50;99.90;;;;;;5053326;28;20048;-86
2023/10/23 08:21:25;;;;;;;1.80;1.70;;;10.70;99.90;;;;;;5029008;28;20124;-84
2023/10/23 08:23:56;;;;;;;1.90;1.80;;;11.00;99.90;;;;;;5039204;28;20056;-85
2023/10/23 08:26:22;;;;;;;1.90;1.80;;;11.10;99.90;;;;;;5026632;28;20048;-84
2023/10/23 08:28:49;;;;;;;1.80;1.70;;;10.70;99.90;;;;;;5030842;28;20185;-83
2023/10/23 08:31:15;;;;;;;1.70;1.60;;;10.90;99.90;;;;;;5034530;28;20090;-83
2023/10/23 08:33:41;;;;;;;1.80;1.70;;;11.30;99.90;;;;;;5023344;28;20194;-86
2023/10/23 08:36:07;;;;;;;1.80;1.70;;;11.10;99.90;;;;;;5048671;28;20066;-86
2023/10/23 08:38:33;;;;;;;1.65;1.55;;;11.30;99.90;;;;;;5030135;28;20045;-83
2023/10/23 08:41:01;;;;;;;1.70;1.60;;;11.30;99.90;;;;;;5024112;28;20059;-83
2023/10/23 08:43:27;;;;;;;1.75;1.65;;;11.60;99.90;;;;;;5026346;28;20498;-84
2023/10/23 08:45:54;;;;;;;1.92;1.83;;;11.20;99.90;;;;;;5053879;28;20044;-83
2023/10/23 08:48:20;;;;;;;1.80;1.70;;;11.80;99.90;;;;;;5045316;28;20093;-84
2023/10/23 08:50:46;;;;;;;1.80;1.70;;;11.40;99.90;;;;;;5028361;28;20048;-83
2023/10/23 08:53:15;;;;;;;1.60;1.50;;;11.80;99.90;;;;;;5054760;28;20064;-82
2023/10/23 08:55:42;;;;;;;1.70;1.60;;;11.80;99.90;;;;;;5021088;28;20076;-85
2023/10/23 08:58:13;;;;;;;1.75;1.65;;;11.80;99.90;;;;;;5025676;28;20068;-86
2023/10/23 09:00:38;;;;;;;1.70;1.60;;;11.20;99.90;;;;;;5026345;28;21601;-84
2023/10/23 09:03:05;;;;;;;1.60;1.50;;;11.90;99.90;;;;;;5028999;28;20059;-84
2023/10/23 09:05:30;;;;;;;1.85;1.75;;;11.20;99.90;;;;;;5031341;28;20057;-85
2023/10/23 09:07:57;;;;;;;1.70;1.60;;;11.10;99.90;;;;;;5031741;28;20041;-84
2023/10/23 09:10:22;;;;;;;1.70;1.60;;;11.50;99.90;;;;;;5054377;28;20115;-84
2023/10/23 09:12:55;;;;;;;1.58;1.48;;;12.20;99.90;;;;;;5032891;28;20140;-83
2023/10/23 09:15:23;;;;;;;1.85;1.75;;;12.00;99.90;;;;;;5003939;28;20433;-83
2023/10/23 09:17:49;;;;;;;1.50;1.42;;;11.80;99.90;;;;;;5052086;28;20057;-83
2023/10/23 09:20:24;;;;;;;1.55;1.45;;;11.80;99.90;;;;;;5029244;28;20103;-85
2023/10/23 09:22:53;;;;;;;1.23;1.23;;;12.40;99.90;;;;;;5061896;28;20053;-84
2023/10/23 09:25:26;;;;;;;1.33;1.33;;;11.90;99.90;;;;;;5063558;28;20052;-85
2023/10/23 09:27:52;;;;;;;1.33;1.33;;;12.10;99.90;;;;;;5011592;28;20045;-83
2023/10/23 09:30:21;;;;;;;1.60;1.50;;;12.30;99.90;;;;;;5029437;28;20045;-86
2023/10/23 09:32:55;;;;;;;1.33;1.33;;;12.20;99.90;;;;;;5009207;28;20041;-86
2023/10/23 09:35:24;;;;;;;1.80;1.70;;;12.60;99.90;;;;;;5010013;28;20705;-83
2023/10/23 09:37:50;;;;;;;1.30;1.30;;;12.30;99.90;;;;;;5028199;28;20199;-86
2023/10/23 09:40:19;;;;;;;1.35;1.33;;;12.30;99.90;;;;;;5028782;28;20148;-85
2023/10/23 09:42:44;;;;;;;1.30;1.30;;;12.60;99.90;;;;;;5020578;28;20056;-85
2023/10/23 09:45:12;;;;;;;1.15;1.15;;;12.70;99.90;;;;;;5030797;28;20126;-85
2023/10/23 09:47:39;;;;;;;1.55;1.45;;;12.60;99.90;;;;;;5045254;28;20081;-85
2023/10/23 09:50:05;;;;;;;1.20;1.20;;;12.40;99.90;;;;;;5030031;28;20099;-85
2023/10/23 09:52:35;;;;;;;1.65;1.55;;;12.80;99.90;;;;;;5021969;28;20053;-86
2023/10/23 09:55:08;;;;;;;1.67;1.58;;;12.70;99.90;;;;;;5024382;28;20056;-86
2023/10/23 09:57:44;;;;;;;1.50;1.42;;;12.70;99.90;;;;;;5052574;28;20488;-87
2023/10/23 10:00:14;;;;;;;1.55;1.45;;;12.50;99.90;;;;;;5057566;28;20072;-86
2023/10/23 10:02:55;;;;;;;1.63;1.52;;;12.80;99.90;;;;;;5011799;28;20052;-87
2023/10/23 10:05:32;;;;;;;1.67;1.58;;;12.80;99.90;;;;;;5029465;28;20102;-86
2023/10/23 10:08:06;;;;;;;1.80;1.70;;;13.10;99.90;;;;;;5044885;28;20048;-87
2023/10/23 10:10:35;;;;;;;1.33;1.33;;;13.10;99.90;;;;;;5056487;28;20106;-88
2023/10/23 10:13:02;;;;;;;1.85;1.75;;;13.20;99.90;;;;;;5033042;28;20142;-86
2023/10/23 10:15:29;;;;;;;1.80;1.70;;;12.90;99.90;;;;;;5059237;28;20053;-86
2023/10/23 10:17:55;;;;;;;1.88;1.77;;;12.90;99.90;;;;;;5027272;28;20070;-86
2023/10/23 10:20:22;;;;;;;1.90;1.80;;;13.10;99.90;;;;;;5032093;28;20063;-90
2023/10/23 10:23:11;;;;;;;1.80;1.70;;;13.00;99.90;;;;;;5030763;28;20041;-87
2023/10/23 10:25:38;;;;;;;1.85;1.75;;;13.20;99.90;;;;;;5028218;28;20106;-86
2023/10/23 10:28:06;;;;;;;1.80;1.70;;;13.30;99.90;;;;;;5015152;28;20073;-86
2023/10/23 10:30:46;;;;;;;1.95;1.85;;;13.10;99.90;;;;;;5029747;28;20053;-87
2023/10/23 10:33:29;;;;;;;1.95;1.85;;;13.10;99.90;;;;;;5027061;28;20063;-88
2023/10/23 10:36:05;;;;;;;2.50;2.40;;;13.00;99.90;;;;;;5043914;28;20048;-85
2023/10/23 10:38:35;;;;;;;1.90;1.80;;;12.90;99.90;;;;;;5016137;28;20057;-87
2023/10/23 10:41:03;;;;;;;1.85;1.75;;;13.20;99.90;;;;;;5032033;28;20098;-87
2023/10/23 10:43:39;;;;;;;2.17;2.08;;;13.20;99.90;;;;;;5014657;28;20045;-88
2023/10/23 10:46:25;;;;;;;1.98;1.88;;;13.10;99.90;;;;;;5050167;28;20184;-87
2023/10/23 10:48:53;;;;;;;1.80;1.70;;;13.10;99.90;;;;;;5037831;28;20465;-90
2023/10/23 10:51:23;;;;;;;1.85;1.75;;;13.20;99.90;;;;;;5034261;28;20049;-89
2023/10/23 10:54:03;;;;;;;2.08;1.98;;;12.90;99.90;;;;;;5015168;28;20081;-86
2023/10/23 10:56:29;;;;;;;1.73;1.63;;;13.10;99.90;;;;;;5033194;28;20597;-87
2023/10/23 10:58:59;;;;;;;1.67;1.60;;;13.50;99.90;;;;;;5013497;28;20083;-85
2023/10/23 11:01:25;;;;;;;1.80;1.70;;;13.40;99.90;;;;;;5031266;28;20041;-89
2023/10/23 11:03:51;;;;;;;1.92;1.83;;;13.50;99.90;;;;;;5033916;28;20044;-91
2023/10/23 11:06:17;;;;;;;1.67;1.60;;;13.60;99.90;;;;;;5037802;28;20044;-89
2023/10/23 11:08:43;;;;;;;1.85;1.75;;;13.70;99.90;;;;;;5046871;28;20049;-88
2023/10/23 11:11:09;;;;;;;1.50;1.45;;;13.70;99.90;;;;;;5053657;28;20399;-86
2023/10/23 11:13:35;;;;;;;1.45;1.40;;;13.90;99.90;;;;;;5026722;28;20056;-86
2023/10/23 11:16:01;;;;;;;1.60;1.50;;;13.90;99.90;;;;;;5031818;28;20383;-89
2023/10/23 11:18:30;;;;;;;1.23;1.23;;;14.10;99.90;;;;;;5027863;28;20040;-87
2023/10/23 11:21:00;;;;;;;1.33;1.33;;;14.10;99.90;;;;;;5022487;28;20076;-88
2023/10/23 11:23:30;;;;;;;1.27;1.27;;;13.80;99.90;;;;;;5035624;28;20040;-88
2023/10/23 11:25:56;;;;;;;1.25;1.25;;;14.20;99.90;;;;;;5013424;28;20047;-90
2023/10/23 11:28:23;;;;;;;1.27;1.27;;;14.10;99.90;;;;;;5029275;28;20045;-85
2023/10/23 11:30:57;;;;;;;1.35;1.35;;;14.10;99.90;;;;;;5030430;28;20060;-88
2023/10/23 11:33:22;;;;;;;1.70;1.60;;;14.10;99.90;;;;;;5029714;28;20110;-88
2023/10/23 11:35:48;;;;;;;1.17;1.17;;;13.50;99.90;;;;;;5015669;28;21209;-89
2023/10/23 11:38:20;;;;;;;1.33;1.33;;;13.80;99.90;;;;;;5050706;28;20044;-88
2023/10/23 11:40:46;;;;;;;2.00;1.90;;;13.50;99.90;;;;;;5035241;28;20041;-86
2023/10/23 11:43:15;;;;;;;1.55;1.45;;;13.30;99.90;;;;;;5029771;28;20080;-88
2023/10/23 11:45:43;;;;;;;1.52;1.48;;;13.40;99.90;;;;;;5031068;28;20052;-87
2023/10/23 11:48:12;;;;;;;1.23;1.23;;;13.60;99.90;;;;;;5049413;28;20573;-85
2023/10/23 11:50:39;;;;;;;1.33;1.33;;;13.70;99.90;;;;;;5052664;28;20124;-84
2023/10/23 11:53:05;;;;;;;1.35;1.35;;;13.70;99.90;;;;;;5020987;28;20487;-89
2023/10/23 11:55:32;;;;;;;1.25;1.25;;;13.80;99.90;;;;;;5044656;28;20436;-89
2023/10/23 11:57:58;;;;;;;1.70;1.60;;;13.70;99.90;;;;;;5035323;28;20097;-87
2023/10/23 12:00:24;;;;;;;2.00;1.90;;;13.10;99.90;;;;;;5035590;28;20041;-87
2023/10/23 12:02:50;;;;;;;1.65;1.55;;;13.00;99.90;;;;;;5070912;28;20040;-87
2023/10/23 12:05:20;;;;;;;1.70;1.60;;;13.60;99.90;;;;;;5030311;28;20048;-87
2023/10/23 12:07:49;;;;;;;1.58;1.50;;;13.50;99.90;;;;;;5034754;28;20053;-89
2023/10/23 12:10:16;;;;;;;1.60;1.52;;;13.40;99.90;;;;;;5028963;28;20064;-87
2023/10/23 12:12:43;;;;;;;1.70;1.60;;;13.60;99.90;;;;;;5026568;28;20045;-90
2023/10/23 12:15:10;;;;;;;1.50;1.45;;;13.50;99.90;;;;;;5034984;28;20064;-89
2023/10/23 12:17:36;;;;;;;1.33;1.33;;;13.70;99.90;;;;;;5035552;28;20520;-88
2023/10/23 12:20:09;;;;;;;1.67;1.60;;;13.90;99.90;;;;;;5040906;28;20103;-88
2023/10/23 12:22:43;;;;;;;1.27;1.27;;;13.90;99.90;;;;;;5039232;28;20048;-85
2023/10/23 12:25:09;;;;;;;1.75;1.70;;;14.10;99.90;;;;;;5027935;28;20045;-88
2023/10/23 12:27:36;;;;;;;1.60;1.50;;;14.00;99.90;;;;;;5047541;28;20132;-86
2023/10/23 12:30:04;;;;;;;1.70;1.60;;;13.80;99.90;;;;;;5036599;28;20048;-88
2023/10/23 12:32:31;;;;;;;1.25;1.25;;;13.70;99.90;;;;;;5018136;28;20041;-92
2023/10/23 12:35:03;;;;;;;1.45;1.40;;;13.80;99.90;;;;;;5016230;28;20037;-88
2023/10/23 12:37:29;;;;;;;1.23;1.23;;;14.00;99.90;;;;;;5029701;28;20041;-89
2023/10/23 12:39:56;;;;;;;1.17;1.17;;;14.30;99.90;;;;;;5031412;28;20056;-90
2023/10/23 12:42:22;;;;;;;1.08;1.08;;;14.50;99.90;;;;;;5014098;28;20052;-88
2023/10/23 12:44:49;;;;;;;1.25;1.25;;;14.60;99.90;;;;;;5013769;28;20037;-89
2023/10/23 12:47:15;;;;;;;1.20;1.20;;;14.60;99.90;;;;;;5030387;28;20045;-88
2023/10/23 12:49:42;;;;;;;1.02;1.02;;;14.30;99.90;;;;;;5038789;28;20504;-88
2023/10/23 12:52:08;;;;;;;1.15;1.15;;;14.20;99.90;;;;;;5062071;28;20049;-90